< < Back
Terminal Aerodrome Forecast


Current Version              Previous Versions:   1  2  3  4  5  6  7  8  9  

Terminal Aerodrome Forecast

045
FTUS42 KTAE 221120
TAFVLD
TAF
KVLD 221120Z 2212/2312 VRB03KT P6SM SCT250
     FM221400 02005KT P6SM SCT150
     FM230100 VRB03KT P6SM SKC=

Latest METAR

860
SAUS70 KWBC 222300 RRG
MTRVLD
METAR KVLD 222248Z 02004KT 10SM SKC 29/09 A3012


USA.gov is the U.S. government's official web portal to all federal, state and local government web resources and services.